createdAt,value
2023-02-05T00:01:42.980Z,6.80
2023-02-05T00:04:10.917Z,6.80
2023-02-05T00:06:38.543Z,6.80
2023-02-05T00:09:06.197Z,6.80
2023-02-05T00:11:33.893Z,6.90
2023-02-05T00:14:01.553Z,6.80
2023-02-05T00:16:29.589Z,6.80
2023-02-05T00:18:57.871Z,6.80
2023-02-05T00:21:25.559Z,6.70
2023-02-05T00:23:54.006Z,6.80
2023-02-05T00:26:21.704Z,6.70
2023-02-05T00:28:49.491Z,6.70
2023-02-05T00:31:20.579Z,6.70
2023-02-05T00:33:49.586Z,6.70
2023-02-05T00:36:18.671Z,6.70
2023-02-05T00:38:47.349Z,6.60
2023-02-05T00:41:15.073Z,6.70
2023-02-05T00:43:43.299Z,6.70
2023-02-05T00:46:12.753Z,6.60
2023-02-05T00:48:41.657Z,6.60
2023-02-05T00:51:10.120Z,6.60
2023-02-05T00:53:37.977Z,6.60
2023-02-05T00:56:05.993Z,6.70
2023-02-05T00:58:34.000Z,6.60
2023-02-05T01:01:01.910Z,6.60
2023-02-05T01:03:29.580Z,6.50
2023-02-05T01:05:57.683Z,6.50
2023-02-05T01:08:25.404Z,6.50
2023-02-05T01:10:53.353Z,6.50
2023-02-05T01:13:21.220Z,6.50
2023-02-05T01:15:50.439Z,6.40
2023-02-05T01:18:18.720Z,6.40
2023-02-05T01:20:46.728Z,6.40
2023-02-05T01:23:14.356Z,6.40
2023-02-05T01:25:42.234Z,6.50
2023-02-05T01:28:10.043Z,6.50
2023-02-05T01:30:37.830Z,6.50
2023-02-05T01:33:05.993Z,6.50
2023-02-05T01:35:34.137Z,6.50
2023-02-05T01:38:03.213Z,6.50
2023-02-05T01:40:30.897Z,6.50
2023-02-05T01:42:58.589Z,6.50
2023-02-05T01:45:26.369Z,6.40
2023-02-05T01:47:56.381Z,6.40
2023-02-05T01:50:27.081Z,6.30
2023-02-05T01:52:57.263Z,6.30
2023-02-05T01:55:25.570Z,6.30
2023-02-05T01:57:54.451Z,6.30
2023-02-05T02:00:23.389Z,6.40
2023-02-05T02:02:51.247Z,6.40
2023-02-05T02:05:19.488Z,6.40
2023-02-05T02:07:47.353Z,6.40
2023-02-05T02:10:17.985Z,6.30
2023-02-05T02:12:47.914Z,6.30
2023-02-05T02:15:19.433Z,6.30
2023-02-05T02:17:50.128Z,6.40
2023-02-05T02:20:26.395Z,6.30
2023-02-05T02:23:21.515Z,6.30
2023-02-05T02:26:01.140Z,6.30
2023-02-05T02:28:33.709Z,6.20
2023-02-05T02:31:30.904Z,6.20
2023-02-05T02:34:28.667Z,6.20
2023-02-05T02:37:07.179Z,6.20
2023-02-05T02:39:42.779Z,6.20
2023-02-05T02:42:35.904Z,6.10
2023-02-05T02:45:08.504Z,6.10
2023-02-05T02:47:41.029Z,6.00
2023-02-05T02:50:25.306Z,6.00
2023-02-05T02:52:54.318Z,5.90
2023-02-05T02:55:23.736Z,5.80
2023-02-05T02:57:52.897Z,5.90
2023-02-05T03:00:25.355Z,5.90
2023-02-05T03:02:58.364Z,5.90
2023-02-05T03:05:29.138Z,5.90
2023-02-05T03:08:12.100Z,5.90
2023-02-05T03:11:09.399Z,5.90
2023-02-05T03:13:37.302Z,5.90
2023-02-05T03:16:07.375Z,5.90
2023-02-05T03:18:35.936Z,5.90
2023-02-05T03:21:09.699Z,5.90
2023-02-05T03:23:37.472Z,5.80
2023-02-05T03:26:05.215Z,5.70
2023-02-05T03:28:42.395Z,5.80
2023-02-05T03:31:20.386Z,5.80
2023-02-05T03:34:15.715Z,5.90
2023-02-05T03:36:52.178Z,5.80
2023-02-05T03:39:38.749Z,5.70
2023-02-05T03:42:19.280Z,5.70
2023-02-05T03:45:09.706Z,5.70
2023-02-05T03:48:02.818Z,5.70
2023-02-05T03:50:44.122Z,5.70
2023-02-05T03:53:16.174Z,5.70
2023-02-05T03:55:49.498Z,5.70
2023-02-05T03:58:32.214Z,5.70
2023-02-05T04:01:00.904Z,5.60
2023-02-05T04:03:29.624Z,5.60
2023-02-05T04:05:57.391Z,5.60
2023-02-05T04:08:26.172Z,5.60
2023-02-05T04:10:54.685Z,5.60
2023-02-05T04:13:22.858Z,5.50
2023-02-05T04:15:51.629Z,5.50
2023-02-05T04:18:19.826Z,5.50
2023-02-05T04:20:49.677Z,5.40
2023-02-05T04:23:21.076Z,5.40
2023-02-05T04:25:54.250Z,5.40
2023-02-05T04:28:26.073Z,5.40
2023-02-05T04:30:54.739Z,5.40
2023-02-05T04:33:22.561Z,5.40
2023-02-05T04:35:50.475Z,5.40
2023-02-05T04:38:18.814Z,5.40
2023-02-05T04:40:46.579Z,5.40
2023-02-05T04:43:14.245Z,5.30
2023-02-05T04:45:41.948Z,5.20
2023-02-05T04:48:09.611Z,5.10
2023-02-05T04:50:38.738Z,5.20
2023-02-05T04:53:06.519Z,5.10
2023-02-05T04:55:34.518Z,5.10
2023-02-05T04:58:02.523Z,5.00
2023-02-05T05:00:30.384Z,5.00
2023-02-05T05:02:58.495Z,4.90
2023-02-05T05:05:26.208Z,4.90
2023-02-05T05:07:53.903Z,4.90
2023-02-05T05:10:21.549Z,4.80
2023-02-05T05:12:49.222Z,4.80
2023-02-05T05:15:16.886Z,4.90
2023-02-05T05:17:44.524Z,4.90
2023-02-05T05:20:12.304Z,4.80
2023-02-05T05:22:39.958Z,4.80
2023-02-05T05:25:07.758Z,4.70
2023-02-05T05:27:35.448Z,4.70
2023-02-05T05:30:03.254Z,4.70
2023-02-05T05:32:30.971Z,4.70
2023-02-05T05:34:58.664Z,4.60
2023-02-05T05:37:26.362Z,4.50
2023-02-05T05:40:12.614Z,4.30
2023-02-05T05:42:58.919Z,4.30
2023-02-05T05:45:26.598Z,4.30
2023-02-05T05:47:54.717Z,4.30
2023-02-05T05:50:22.290Z,4.30
2023-02-05T05:52:50.025Z,4.20
2023-02-05T05:55:17.740Z,4.20
2023-02-05T05:57:45.449Z,4.20
2023-02-05T06:00:13.927Z,4.20
2023-02-05T06:02:44.336Z,4.20
2023-02-05T06:05:12.295Z,4.20
2023-02-05T06:07:39.988Z,4.30
2023-02-05T06:10:08.166Z,4.30
2023-02-05T06:12:35.810Z,4.30
2023-02-05T06:15:03.936Z,4.30
2023-02-05T06:17:31.585Z,4.20
2023-02-05T06:19:59.325Z,4.20
2023-02-05T06:22:27.055Z,4.20
2023-02-05T06:24:54.778Z,4.10
2023-02-05T06:27:22.561Z,4.10
2023-02-05T06:29:50.275Z,4.10
2023-02-05T06:32:18.010Z,4.00
2023-02-05T06:34:45.673Z,4.10
2023-02-05T06:37:13.473Z,4.20
2023-02-05T06:39:41.475Z,4.30
2023-02-05T06:42:09.188Z,4.30
2023-02-05T06:44:36.935Z,4.20
2023-02-05T06:47:04.612Z,4.00
2023-02-05T06:49:32.342Z,3.90
2023-02-05T06:52:00.520Z,3.80
2023-02-05T06:54:28.142Z,3.90
2023-02-05T06:56:55.867Z,3.90
2023-02-05T06:59:23.618Z,3.80
2023-02-05T07:01:51.445Z,3.70
2023-02-05T07:04:19.114Z,3.90
2023-02-05T07:06:46.868Z,3.90
2023-02-05T07:09:14.951Z,3.90
2023-02-05T07:11:42.702Z,3.90
2023-02-05T07:14:10.362Z,3.90
2023-02-05T07:16:38.065Z,4.00
2023-02-05T07:19:05.799Z,4.10
2023-02-05T07:21:33.403Z,4.30
2023-02-05T07:24:01.312Z,4.30
2023-02-05T07:26:28.972Z,4.40
2023-02-05T07:28:57.314Z,4.60
2023-02-05T07:31:25.047Z,4.70
2023-02-05T07:33:52.880Z,4.80
2023-02-05T07:36:20.597Z,4.90
2023-02-05T07:38:48.440Z,5.00
2023-02-05T07:41:17.312Z,5.20
2023-02-05T07:43:45.109Z,5.40
2023-02-05T07:46:14.630Z,5.40
2023-02-05T07:48:42.359Z,5.50
2023-02-05T07:51:17.094Z,5.60
2023-02-05T07:53:45.572Z,5.60
2023-02-05T07:56:13.542Z,5.70
2023-02-05T07:58:41.686Z,5.70
2023-02-05T08:01:09.814Z,5.70
2023-02-05T08:03:37.489Z,5.80
2023-02-05T08:06:09.400Z,5.80
2023-02-05T08:08:37.254Z,5.80
2023-02-05T08:11:06.960Z,5.80
2023-02-05T08:13:34.802Z,5.80
2023-02-05T08:16:08.509Z,5.80
2023-02-05T08:18:36.221Z,5.80
2023-02-05T08:21:04.106Z,5.80
2023-02-05T08:23:31.760Z,5.80
2023-02-05T08:26:00.204Z,5.90
2023-02-05T08:28:29.039Z,5.90
2023-02-05T08:30:57.018Z,5.90
2023-02-05T08:33:25.157Z,6.00
2023-02-05T08:35:52.819Z,6.00
2023-02-05T08:38:20.543Z,6.00
2023-02-05T08:40:48.194Z,6.00
2023-02-05T08:43:15.938Z,6.10
2023-02-05T08:45:47.908Z,6.20
2023-02-05T08:48:15.752Z,6.40
2023-02-05T08:50:46.430Z,6.50
2023-02-05T08:53:14.170Z,6.60
2023-02-05T08:55:41.936Z,6.70
2023-02-05T08:58:09.621Z,6.80
2023-02-05T09:00:39.128Z,6.90
2023-02-05T09:03:06.796Z,7.00
2023-02-05T09:05:34.682Z,7.10
2023-02-05T09:08:02.505Z,7.30
2023-02-05T09:10:30.223Z,7.50
2023-02-05T09:12:57.904Z,7.60
2023-02-05T09:15:25.602Z,7.70
2023-02-05T09:17:53.267Z,7.60
2023-02-05T09:20:22.226Z,7.60
2023-02-05T09:22:51.055Z,7.70
2023-02-05T09:25:18.897Z,7.70
2023-02-05T09:27:46.632Z,7.80
2023-02-05T09:30:14.709Z,7.90
2023-02-05T09:32:42.465Z,8.00
2023-02-05T09:35:11.297Z,8.00
2023-02-05T09:37:39.323Z,8.00
2023-02-05T09:40:23.068Z,8.00
2023-02-05T09:43:03.656Z,8.10
2023-02-05T09:45:56.731Z,8.10
2023-02-05T09:48:24.642Z,8.00
2023-02-05T09:50:53.049Z,8.10
2023-02-05T09:53:22.489Z,8.20
2023-02-05T09:55:50.511Z,8.20
2023-02-05T09:58:23.695Z,8.30
2023-02-05T10:01:23.120Z,8.30
2023-02-05T10:04:01.275Z,8.30
2023-02-05T10:06:54.831Z,8.30
2023-02-05T10:09:43.596Z,8.40
2023-02-05T10:12:32.459Z,8.40
2023-02-05T10:15:06.379Z,8.40
2023-02-05T10:17:52.859Z,8.40
2023-02-05T10:20:52.302Z,8.50
2023-02-05T10:23:51.686Z,8.50
2023-02-05T10:26:23.007Z,8.60
2023-02-05T10:28:53.470Z,8.60
2023-02-05T10:31:43.753Z,8.70
2023-02-05T10:34:37.156Z,8.80
2023-02-05T10:37:10.558Z,8.60
2023-02-05T10:39:38.282Z,8.70
2023-02-05T10:42:19.889Z,8.70
2023-02-05T10:44:53.135Z,8.70
2023-02-05T10:47:46.321Z,8.80
2023-02-05T11:02:18.156Z,9.00
2023-02-05T11:05:03.325Z,9.00
2023-02-05T11:07:30.929Z,9.10
2023-02-05T11:10:14.990Z,9.20
2023-02-05T11:12:45.976Z,9.30
2023-02-05T11:15:28.542Z,9.40
2023-02-05T11:18:03.420Z,9.40
2023-02-05T11:20:36.478Z,9.40
2023-02-05T11:23:15.451Z,9.40
2023-02-05T11:25:59.934Z,9.40
2023-02-05T11:37:10.924Z,9.50
2023-02-05T11:39:48.799Z,9.50
2023-02-05T11:42:23.962Z,9.50
2023-02-05T11:44:58.902Z,9.50
2023-02-05T11:47:36.043Z,9.50
2023-02-05T11:50:06.565Z,9.40
2023-02-05T12:00:18.489Z,9.50
2023-02-05T12:02:52.006Z,9.50
2023-02-05T12:05:33.307Z,9.50
2023-02-05T12:08:26.718Z,9.50
2023-02-05T12:19:15.090Z,9.50
2023-02-05T12:22:01.834Z,9.60
2023-02-05T12:24:48.603Z,9.60
2023-02-05T12:27:56.235Z,9.60
2023-02-05T12:31:01.933Z,9.70
2023-02-05T12:37:16.315Z,9.70
2023-02-05T12:39:49.768Z,9.70
2023-02-05T12:42:51.098Z,9.80
2023-02-05T12:45:45.547Z,9.80
2023-02-05T12:49:01.480Z,9.70
2023-02-05T12:51:58.348Z,9.40
2023-02-05T12:55:06.312Z,9.50
2023-02-05T12:57:59.363Z,9.60
2023-02-05T13:01:26.475Z,9.50
2023-02-05T13:04:19.703Z,9.50
2023-02-05T13:07:18.612Z,9.40
2023-02-05T13:14:30.699Z,9.50
2023-02-05T13:17:13.999Z,9.50
2023-02-05T13:19:52.987Z,9.50
2023-02-05T13:22:44.758Z,9.50
2023-02-05T13:25:41.645Z,9.40
2023-02-05T13:32:16.572Z,9.50
2023-02-05T13:34:44.584Z,9.50
2023-02-05T13:37:45.505Z,9.50
2023-02-05T13:40:50.624Z,9.40
2023-02-05T13:44:14.658Z,9.40
2023-02-05T13:51:58.427Z,9.30
2023-02-05T13:55:25.164Z,9.10
2023-02-05T14:06:50.614Z,9.00
2023-02-05T14:24:29.351Z,8.80
2023-02-05T14:27:31.462Z,8.80
2023-02-05T14:31:13.774Z,8.70
2023-02-05T14:34:08.715Z,8.60
2023-02-05T14:40:25.719Z,8.60
2023-02-05T14:43:49.923Z,8.50
2023-02-05T14:47:15.662Z,8.50
2023-02-05T14:57:48.543Z,8.30
2023-02-05T15:04:50.425Z,8.40
2023-02-05T15:07:56.317Z,8.30
2023-02-05T15:14:25.571Z,8.30
2023-02-05T15:24:03.604Z,8.10
2023-02-05T15:30:36.304Z,8.10
2023-02-05T15:44:00.052Z,7.90
2023-02-05T15:46:47.998Z,7.90
2023-02-05T15:49:43.064Z,7.80
2023-02-05T16:00:30.698Z,7.60
2023-02-05T16:03:35.610Z,7.40
2023-02-05T16:09:56.862Z,7.40
2023-02-05T16:12:43.207Z,7.60
2023-02-05T16:15:16.549Z,7.50
2023-02-05T16:17:50.787Z,7.30
2023-02-05T16:20:24.636Z,7.40
2023-02-05T16:23:00.353Z,7.20
2023-02-05T16:25:46.240Z,7.20
2023-02-05T16:28:37.726Z,7.20
2023-02-05T16:31:08.249Z,7.20
2023-02-05T16:33:44.234Z,7.10
2023-02-05T16:36:43.449Z,7.10
2023-02-05T16:39:29.965Z,7.10
2023-02-05T16:42:14.993Z,7.10
2023-02-05T16:44:49.773Z,7.10
2023-02-05T16:47:21.762Z,7.10
2023-02-05T16:49:52.498Z,7.10
2023-02-05T16:52:36.849Z,7.10
2023-02-05T16:55:25.937Z,7.10
2023-02-05T16:57:56.412Z,7.00
2023-02-05T17:00:29.741Z,7.00
2023-02-05T17:03:07.704Z,7.00
2023-02-05T17:05:37.276Z,7.00
2023-02-05T17:08:12.390Z,7.10
2023-02-05T17:11:03.895Z,7.20
2023-02-05T17:13:37.847Z,7.10
2023-02-05T17:16:24.646Z,7.00
2023-02-05T17:18:58.146Z,7.00
2023-02-05T17:21:28.740Z,7.00
2023-02-05T17:23:59.326Z,7.00
2023-02-05T17:26:31.147Z,6.90
2023-02-05T17:29:02.958Z,6.90
2023-02-05T17:31:33.161Z,6.90
2023-02-05T17:34:00.997Z,6.90
2023-02-05T17:36:28.707Z,6.90
2023-02-05T17:38:56.526Z,7.00
2023-02-05T17:41:45.735Z,7.00
2023-02-05T17:44:15.949Z,6.90
2023-02-05T17:46:44.523Z,6.90
2023-02-05T17:49:12.298Z,7.00
2023-02-05T17:51:42.632Z,7.00
2023-02-05T17:54:22.096Z,7.00
2023-02-05T17:56:51.001Z,7.00
2023-02-05T17:59:21.788Z,7.00
2023-02-05T18:01:51.608Z,7.00
2023-02-05T18:04:20.008Z,7.10
2023-02-05T18:06:50.176Z,7.10
2023-02-05T18:09:18.890Z,7.20
2023-02-05T18:11:46.632Z,7.10
2023-02-05T18:14:14.339Z,7.10
2023-02-05T18:16:43.289Z,7.00
2023-02-05T18:19:11.106Z,7.00
2023-02-05T18:21:38.751Z,7.00
2023-02-05T18:24:09.033Z,7.00
2023-02-05T18:26:39.648Z,7.10
2023-02-05T18:29:07.488Z,7.10
2023-02-05T18:31:36.196Z,7.00
2023-02-05T18:34:03.884Z,6.90
2023-02-05T18:36:31.632Z,7.00
2023-02-05T18:38:59.428Z,7.00
2023-02-05T18:41:28.730Z,6.90
2023-02-05T18:43:57.541Z,6.80
2023-02-05T18:46:25.984Z,6.80
2023-02-05T18:48:55.335Z,6.70
2023-02-05T18:51:24.202Z,6.80
2023-02-05T18:53:52.120Z,6.80
2023-02-05T18:56:22.907Z,6.90
2023-02-05T18:58:53.668Z,6.80
2023-02-05T19:01:21.480Z,6.90
2023-02-05T19:03:52.888Z,6.90
2023-02-05T19:06:21.930Z,6.90
2023-02-05T19:08:50.321Z,6.90
2023-02-05T19:11:24.306Z,6.90
2023-02-05T19:13:59.391Z,6.90
2023-02-05T19:16:27.882Z,6.80
2023-02-05T19:18:56.309Z,6.80
2023-02-05T19:21:26.817Z,6.80
2023-02-05T19:23:56.406Z,6.70
2023-02-05T19:26:27.812Z,6.80
2023-02-05T19:29:05.661Z,6.70
2023-02-05T19:31:36.107Z,6.70
2023-02-05T19:34:04.748Z,6.60
2023-02-05T19:36:33.177Z,6.60
2023-02-05T19:39:01.846Z,6.70
2023-02-05T19:41:31.893Z,6.60
2023-02-05T19:44:02.532Z,6.60
2023-02-05T19:46:33.180Z,6.60
2023-02-05T19:49:05.079Z,6.60
2023-02-05T19:51:34.101Z,6.60
2023-02-05T19:54:06.793Z,6.50
2023-02-05T19:56:38.159Z,6.60
2023-02-05T19:59:06.828Z,6.50
2023-02-05T20:01:38.495Z,6.50
2023-02-05T20:04:26.036Z,6.40
2023-02-05T20:06:58.687Z,6.40
2023-02-05T20:09:28.059Z,6.40
2023-02-05T20:11:55.874Z,6.50
2023-02-05T20:14:24.325Z,6.50
2023-02-05T20:16:53.161Z,6.50
2023-02-05T20:19:21.117Z,6.40
2023-02-05T20:21:49.204Z,6.30
2023-02-05T20:24:17.187Z,6.30
2023-02-05T20:26:47.952Z,6.30
2023-02-05T20:29:51.465Z,6.40
2023-02-05T20:32:19.237Z,6.40
2023-02-05T20:34:50.255Z,6.40
2023-02-05T20:37:19.952Z,6.40
2023-02-05T20:39:48.421Z,6.40
2023-02-05T20:42:17.245Z,6.40
2023-02-05T20:44:45.028Z,6.50
2023-02-05T20:47:14.448Z,6.40
2023-02-05T20:49:42.888Z,6.40
2023-02-05T20:52:11.491Z,6.30
2023-02-05T20:54:39.478Z,6.40
2023-02-05T20:57:08.022Z,6.40
2023-02-05T20:59:36.731Z,6.40
2023-02-05T21:02:04.541Z,6.40
2023-02-05T21:04:32.423Z,6.40
2023-02-05T21:07:01.052Z,6.40
2023-02-05T21:09:28.761Z,6.50
2023-02-05T21:11:56.572Z,6.50
2023-02-05T21:14:24.442Z,6.50
2023-02-05T21:16:52.259Z,6.50
2023-02-05T21:19:20.001Z,6.50
2023-02-05T21:21:50.080Z,6.50
2023-02-05T21:24:17.849Z,6.40
2023-02-05T21:26:47.868Z,6.40
2023-02-05T21:29:18.491Z,6.50
2023-02-05T21:31:48.996Z,6.40
2023-02-05T21:34:19.239Z,6.40
2023-02-05T21:36:48.623Z,6.40
2023-02-05T21:39:17.208Z,6.40
2023-02-05T21:41:46.250Z,6.50
2023-02-05T21:44:14.109Z,6.50
2023-02-05T21:46:41.913Z,6.50
2023-02-05T21:49:11.641Z,6.60
2023-02-05T21:51:40.009Z,6.50
2023-02-05T21:54:07.700Z,6.60
2023-02-05T21:56:39.215Z,6.50
2023-02-05T21:59:07.188Z,6.50
2023-02-05T22:01:36.427Z,6.50
2023-02-05T22:04:15.240Z,6.50
2023-02-05T22:06:44.025Z,6.50
2023-02-05T22:09:15.223Z,6.50
2023-02-05T22:11:44.069Z,6.40
2023-02-05T22:14:11.974Z,6.40
2023-02-05T22:16:40.071Z,6.40
2023-02-05T22:19:08.222Z,6.50
2023-02-05T22:21:38.670Z,6.40
2023-02-05T22:24:08.204Z,6.30
2023-02-05T22:26:38.890Z,6.30
2023-02-05T22:29:08.804Z,6.30
2023-02-05T22:31:36.744Z,6.30
2023-02-05T22:34:05.377Z,6.30
2023-02-05T22:36:34.456Z,6.30
2023-02-05T22:39:03.912Z,6.40
2023-02-05T22:41:37.442Z,6.40
2023-02-05T22:44:06.746Z,6.30
2023-02-05T22:46:39.646Z,6.40
2023-02-05T22:49:07.564Z,6.40
2023-02-05T22:51:39.871Z,6.40
2023-02-05T22:54:08.603Z,6.40
2023-02-05T22:56:37.242Z,6.30
2023-02-05T22:59:05.074Z,6.20
2023-02-05T23:01:35.622Z,6.20
2023-02-05T23:04:05.243Z,6.10
2023-02-05T23:06:41.762Z,6.20
2023-02-05T23:09:16.820Z,6.20
2023-02-05T23:11:45.121Z,6.20
2023-02-05T23:14:15.035Z,6.10
2023-02-05T23:16:44.466Z,6.20
2023-02-05T23:19:16.137Z,6.20
2023-02-05T23:21:43.828Z,6.10
2023-02-05T23:24:12.146Z,6.20
2023-02-05T23:26:44.319Z,6.20
2023-02-05T23:29:13.718Z,6.20
2023-02-05T23:31:42.098Z,6.20
2023-02-05T23:34:10.036Z,6.20
2023-02-05T23:36:37.823Z,6.20
2023-02-05T23:39:05.632Z,6.10
2023-02-05T23:41:36.363Z,6.10
2023-02-05T23:44:15.944Z,6.20
2023-02-05T23:46:45.050Z,6.20
2023-02-05T23:49:13.865Z,6.10
2023-02-05T23:51:41.860Z,6.10
2023-02-05T23:54:11.103Z,6.10
2023-02-05T23:56:39.334Z,6.10
2023-02-05T23:59:08.349Z,6.10
